createdAt,value
2018-05-06T00:00:39.053Z,12.03
2018-05-06T00:03:06.945Z,13.20
2018-05-06T00:05:35.039Z,7.90
2018-05-06T00:08:02.925Z,17.40
2018-05-06T00:10:30.834Z,13.30
2018-05-06T00:12:58.736Z,13.40
2018-05-06T00:15:26.641Z,11.20
2018-05-06T00:17:54.546Z,15.00
2018-05-06T00:20:22.458Z,7.87
2018-05-06T00:22:50.365Z,13.83
2018-05-06T00:25:18.265Z,9.67
2018-05-06T00:27:46.157Z,13.03
2018-05-06T00:30:14.054Z,12.17
2018-05-06T00:32:41.986Z,12.17
2018-05-06T00:35:09.873Z,13.60
2018-05-06T00:37:37.765Z,11.00
2018-05-06T00:40:05.670Z,16.80
2018-05-06T00:42:33.573Z,12.70
2018-05-06T00:45:01.474Z,9.70
2018-05-06T00:47:29.386Z,12.67
2018-05-06T00:49:57.290Z,8.50
2018-05-06T00:52:25.196Z,14.30
2018-05-06T00:54:53.093Z,11.53
2018-05-06T00:57:20.990Z,11.30
2018-05-06T00:59:48.886Z,14.67
2018-05-06T01:02:16.778Z,12.73
2018-05-06T01:04:44.697Z,16.63
2018-05-06T01:07:12.846Z,14.47
2018-05-06T01:09:40.767Z,15.80
2018-05-06T01:12:08.689Z,10.70
2018-05-06T01:14:36.586Z,13.27
2018-05-06T01:17:04.502Z,12.43
2018-05-06T01:19:32.406Z,14.03
2018-05-06T01:22:00.333Z,14.00
2018-05-06T01:24:28.226Z,9.93
2018-05-06T01:26:56.138Z,12.23
2018-05-06T01:29:24.050Z,9.10
2018-05-06T01:31:51.946Z,21.87
2018-05-06T01:34:19.845Z,14.23
2018-05-06T01:36:47.751Z,18.50
2018-05-06T01:39:15.665Z,15.73
2018-05-06T01:41:43.583Z,12.43
2018-05-06T01:44:11.493Z,12.37
2018-05-06T01:46:39.392Z,12.47
2018-05-06T01:49:07.285Z,13.33
2018-05-06T01:51:35.182Z,10.57
2018-05-06T01:54:03.071Z,22.57
2018-05-06T01:56:30.950Z,17.10
2018-05-06T01:58:58.839Z,13.10
2018-05-06T02:01:26.905Z,16.80
2018-05-06T02:03:54.801Z,18.83
2018-05-06T02:06:22.687Z,15.13
2018-05-06T02:08:50.852Z,14.57
2018-05-06T02:11:18.770Z,11.37
2018-05-06T02:13:46.688Z,10.23
2018-05-06T02:16:14.642Z,16.17
2018-05-06T02:18:42.545Z,10.00
2018-05-06T02:21:10.462Z,9.70
2018-05-06T02:23:38.377Z,14.10
2018-05-06T02:26:06.286Z,8.83
2018-05-06T02:28:34.185Z,14.73
2018-05-06T02:31:02.114Z,17.03
2018-05-06T02:33:30.035Z,14.20
2018-05-06T02:35:57.975Z,10.23
2018-05-06T02:38:25.865Z,14.57
2018-05-06T02:40:53.762Z,13.00
2018-05-06T02:43:21.666Z,17.10
2018-05-06T02:45:49.550Z,16.57
2018-05-06T02:48:17.437Z,14.17
2018-05-06T02:50:45.346Z,13.10
2018-05-06T02:53:13.230Z,12.03
2018-05-06T02:55:41.122Z,14.03
2018-05-06T02:58:09.009Z,13.60
2018-05-06T03:00:36.910Z,9.47
2018-05-06T03:03:04.801Z,12.97
2018-05-06T03:05:32.711Z,11.67
2018-05-06T03:08:00.597Z,11.00
2018-05-06T03:10:28.674Z,11.10
2018-05-06T03:12:56.586Z,11.27
2018-05-06T03:15:24.506Z,11.47
2018-05-06T03:17:52.394Z,8.10
2018-05-06T03:20:20.286Z,29.50
2018-05-06T03:22:48.194Z,13.97
2018-05-06T03:25:16.328Z,9.67
2018-05-06T03:27:44.215Z,12.20
2018-05-06T03:30:12.129Z,11.77
2018-05-06T03:32:40.059Z,8.70
2018-05-06T03:35:07.965Z,10.30
2018-05-06T03:37:35.861Z,11.70
2018-05-06T03:40:03.765Z,12.87
2018-05-06T03:42:31.709Z,10.37
2018-05-06T03:44:59.601Z,13.20
2018-05-06T03:47:27.546Z,15.27
2018-05-06T03:49:55.438Z,11.40
2018-05-06T03:52:23.361Z,14.20
2018-05-06T03:54:51.254Z,11.33
2018-05-06T03:57:25.325Z,11.70
2018-05-06T04:02:53.298Z,12.07
2018-05-06T04:05:21.194Z,10.10
2018-05-06T04:07:49.147Z,14.47
2018-05-06T04:10:17.065Z,14.73
2018-05-06T04:12:45.178Z,16.17
2018-05-06T04:15:13.069Z,13.10
2018-05-06T04:17:40.977Z,14.67
2018-05-06T04:20:08.889Z,12.07
2018-05-06T04:22:36.792Z,10.67
2018-05-06T04:25:04.681Z,11.90
2018-05-06T04:27:32.586Z,13.20
2018-05-06T04:30:00.486Z,8.20
2018-05-06T04:32:28.382Z,9.87
2018-05-06T04:34:56.286Z,10.10
2018-05-06T04:37:24.197Z,13.13
2018-05-06T04:39:52.131Z,6.93
2018-05-06T04:42:20.033Z,14.67
2018-05-06T04:44:47.935Z,15.83
2018-05-06T04:47:15.826Z,10.20
2018-05-06T04:49:43.722Z,8.80
2018-05-06T04:52:11.636Z,14.80
2018-05-06T04:54:39.525Z,4.43
2018-05-06T04:57:07.425Z,5.53
2018-05-06T04:59:35.326Z,7.07
2018-05-06T05:02:03.222Z,6.93
2018-05-06T05:04:31.126Z,10.10
2018-05-06T05:06:59.042Z,7.07
2018-05-06T05:09:26.948Z,4.57
2018-05-06T05:11:54.850Z,4.90
2018-05-06T05:14:22.997Z,6.37
2018-05-06T05:16:50.890Z,9.47
2018-05-06T05:19:18.794Z,4.13
2018-05-06T05:21:46.693Z,11.17
2018-05-06T05:24:14.603Z,8.40
2018-05-06T05:26:42.507Z,10.50
2018-05-06T05:29:10.402Z,6.27
2018-05-06T05:31:38.301Z,9.63
2018-05-06T05:34:06.202Z,5.13
2018-05-06T05:36:34.130Z,6.47
2018-05-06T05:39:02.023Z,8.87
2018-05-06T05:41:29.925Z,8.73
2018-05-06T05:43:57.838Z,5.33
2018-05-06T05:46:25.766Z,6.63
2018-05-06T05:48:53.655Z,7.97
2018-05-06T05:51:21.541Z,5.13
2018-05-06T05:53:49.434Z,10.33
2018-05-06T05:56:17.351Z,45.77
2018-05-06T05:58:45.237Z,6.60
2018-05-06T06:01:13.137Z,6.43
2018-05-06T06:03:41.029Z,6.60
2018-05-06T06:06:08.918Z,5.80
2018-05-06T06:08:36.822Z,5.90
2018-05-06T06:11:04.726Z,10.37
2018-05-06T06:13:32.630Z,9.67
2018-05-06T06:16:00.721Z,9.47
2018-05-06T06:18:28.613Z,7.83
2018-05-06T06:20:56.538Z,6.20
2018-05-06T06:23:24.433Z,4.73
2018-05-06T06:25:52.342Z,4.17
2018-05-06T06:28:20.255Z,7.77
2018-05-06T06:30:48.158Z,20.87
2018-05-06T06:33:16.042Z,3.87
2018-05-06T06:35:43.938Z,4.40
2018-05-06T06:38:11.862Z,5.33
2018-05-06T06:40:39.749Z,4.73
2018-05-06T06:43:07.630Z,4.97
2018-05-06T06:45:35.514Z,6.80
2018-05-06T06:48:03.459Z,6.73
2018-05-06T06:50:31.337Z,6.17
2018-05-06T06:52:59.222Z,4.83
2018-05-06T06:55:27.145Z,11.83
2018-05-06T06:57:55.050Z,7.90
2018-05-06T07:00:22.963Z,4.10
2018-05-06T07:02:50.845Z,2.80
2018-05-06T07:05:18.742Z,4.53
2018-05-06T07:07:46.658Z,4.97
2018-05-06T07:10:14.597Z,3.00
2018-05-06T07:12:42.513Z,3.50
2018-05-06T07:15:10.407Z,4.97
2018-05-06T07:17:38.543Z,3.10
2018-05-06T07:20:06.455Z,3.77
2018-05-06T07:22:34.341Z,6.50
2018-05-06T07:25:02.268Z,5.00
2018-05-06T07:27:30.170Z,5.93
2018-05-06T07:29:58.118Z,8.30
2018-05-06T07:32:26.018Z,6.93
2018-05-06T07:34:53.909Z,4.60
2018-05-06T07:37:21.793Z,4.53
2018-05-06T07:39:49.694Z,3.77
2018-05-06T07:42:17.593Z,2.40
2018-05-06T07:44:45.490Z,2.10
2018-05-06T07:47:13.390Z,7.87
2018-05-06T07:49:41.298Z,4.67
2018-05-06T07:52:09.209Z,4.50
2018-05-06T07:54:37.105Z,7.93
2018-05-06T07:57:04.997Z,1.60
2018-05-06T07:59:32.888Z,3.03
2018-05-06T08:02:00.770Z,5.33
2018-05-06T08:04:28.685Z,5.00
2018-05-06T08:06:56.765Z,3.07
2018-05-06T08:09:24.648Z,4.90
2018-05-06T08:11:52.534Z,1.93
2018-05-06T08:14:20.438Z,4.80
2018-05-06T08:16:48.351Z,3.87
2018-05-06T08:19:16.461Z,4.33
2018-05-06T08:21:44.401Z,3.53
2018-05-06T08:24:12.322Z,7.10
2018-05-06T08:26:40.209Z,3.50
2018-05-06T08:29:08.100Z,3.70
2018-05-06T08:31:35.993Z,3.10
2018-05-06T08:34:03.901Z,4.50
2018-05-06T08:36:31.787Z,3.10
2018-05-06T08:38:59.673Z,4.37
2018-05-06T08:41:27.580Z,5.83
2018-05-06T08:43:55.481Z,3.57
2018-05-06T08:46:23.376Z,4.20
2018-05-06T08:48:51.262Z,6.90
2018-05-06T08:51:19.206Z,2.80
2018-05-06T08:53:47.097Z,2.10
2018-05-06T08:56:15.079Z,2.93
2018-05-06T08:58:42.979Z,4.40
2018-05-06T09:01:10.879Z,5.63
2018-05-06T09:03:38.790Z,4.57
2018-05-06T09:06:06.690Z,4.77
2018-05-06T09:08:34.594Z,5.10
2018-05-06T09:11:02.639Z,3.53
2018-05-06T09:13:30.486Z,5.70
2018-05-06T09:15:58.420Z,5.90
2018-05-06T09:18:26.305Z,9.27
2018-05-06T09:20:54.390Z,3.13
2018-05-06T09:23:22.306Z,2.17
2018-05-06T09:25:50.201Z,2.13
2018-05-06T09:28:18.102Z,3.13
2018-05-06T09:30:46.008Z,1.23
2018-05-06T09:33:13.906Z,1.50
2018-05-06T09:35:41.797Z,2.10
2018-05-06T09:38:09.690Z,3.03
2018-05-06T09:40:37.584Z,3.07
2018-05-06T09:43:05.469Z,1.37
2018-05-06T09:45:33.362Z,4.50
2018-05-06T09:48:01.253Z,6.20
2018-05-06T09:50:29.146Z,2.23
2018-05-06T09:52:57.046Z,2.43
2018-05-06T09:55:24.962Z,3.13
2018-05-06T09:57:52.889Z,2.63
2018-05-06T10:00:20.777Z,1.77
2018-05-06T10:02:48.673Z,1.77
2018-05-06T10:05:16.569Z,1.10
2018-05-06T10:07:44.458Z,0.90
2018-05-06T10:10:12.365Z,1.20
2018-05-06T10:12:40.261Z,4.57
2018-05-06T10:15:08.141Z,1.63
2018-05-06T10:17:36.066Z,6.37
2018-05-06T10:20:03.977Z,2.00
2018-05-06T10:22:32.107Z,5.10
2018-05-06T10:24:59.984Z,1.10
2018-05-06T10:27:27.871Z,1.43
2018-05-06T10:29:55.817Z,0.80
2018-05-06T10:32:23.726Z,1.87
2018-05-06T10:34:51.645Z,0.80
2018-05-06T10:37:19.541Z,0.90
2018-05-06T10:39:47.434Z,9.90
2018-05-06T10:42:15.354Z,7.37
2018-05-06T10:44:43.242Z,1.23
2018-05-06T10:47:11.141Z,1.23
2018-05-06T10:49:39.050Z,3.20
2018-05-06T10:52:06.938Z,1.40
2018-05-06T10:54:34.836Z,0.90
2018-05-06T10:57:02.725Z,1.93
2018-05-06T10:59:30.629Z,1.30
2018-05-06T11:01:58.542Z,1.57
2018-05-06T11:04:26.461Z,2.90
2018-05-06T11:06:54.353Z,1.57
2018-05-06T11:09:22.320Z,11.47
2018-05-06T11:11:50.225Z,12.60
2018-05-06T11:14:18.162Z,2.50
2018-05-06T11:16:46.089Z,3.13
2018-05-06T11:19:13.998Z,1.33
2018-05-06T11:21:41.938Z,2.30
2018-05-06T11:24:10.042Z,1.10
2018-05-06T11:26:37.948Z,4.23
2018-05-06T11:29:05.838Z,2.33
2018-05-06T11:31:33.794Z,3.27
2018-05-06T11:34:01.698Z,1.03
2018-05-06T11:36:29.607Z,1.40
2018-05-06T11:38:57.522Z,1.43
2018-05-06T11:41:25.421Z,1.50
2018-05-06T11:43:53.342Z,8.40
2018-05-06T11:46:21.234Z,1.20
2018-05-06T11:48:49.137Z,2.17
2018-05-06T11:51:17.046Z,4.70
2018-05-06T11:53:44.930Z,1.50
2018-05-06T11:56:12.903Z,5.30
2018-05-06T11:58:40.714Z,0.87
2018-05-06T12:01:08.613Z,1.30
2018-05-06T12:03:36.493Z,1.50
2018-05-06T12:06:04.378Z,2.10
2018-05-06T12:08:32.267Z,1.63
2018-05-06T12:11:00.189Z,1.50
2018-05-06T12:13:28.135Z,2.43
2018-05-06T12:15:56.101Z,4.90
2018-05-06T12:18:23.953Z,1.30
2018-05-06T12:20:51.865Z,1.23
2018-05-06T12:23:19.823Z,1.60
2018-05-06T12:25:48.029Z,2.97
2018-05-06T12:28:15.953Z,2.10
2018-05-06T12:30:43.845Z,2.83
2018-05-06T12:33:11.745Z,3.83
2018-05-06T12:35:39.693Z,3.57
2018-05-06T12:38:07.585Z,2.00
2018-05-06T12:40:35.493Z,1.33
2018-05-06T12:43:03.379Z,1.30
2018-05-06T12:45:31.287Z,1.37
2018-05-06T12:47:59.237Z,2.77
2018-05-06T12:50:27.182Z,1.57
2018-05-06T12:52:55.078Z,1.70
2018-05-06T12:55:23.071Z,2.30
2018-05-06T12:57:50.981Z,1.50
2018-05-06T13:00:18.891Z,2.90
2018-05-06T13:02:46.774Z,1.43
2018-05-06T13:05:14.690Z,2.40
2018-05-06T13:07:42.594Z,0.90
2018-05-06T13:10:10.510Z,1.17
2018-05-06T13:12:38.411Z,1.30
2018-05-06T13:15:06.328Z,4.50
2018-05-06T13:17:34.201Z,1.10
2018-05-06T13:20:02.143Z,1.20
2018-05-06T13:22:30.048Z,2.27
2018-05-06T13:24:57.950Z,2.27
2018-05-06T13:27:26.174Z,3.33
2018-05-06T13:29:54.133Z,1.30
2018-05-06T13:32:22.048Z,12.20
2018-05-06T13:34:49.969Z,6.10
2018-05-06T13:37:17.878Z,3.50
2018-05-06T13:39:45.805Z,4.27
2018-05-06T13:42:13.724Z,10.10
2018-05-06T13:44:41.685Z,7.60
2018-05-06T13:47:09.614Z,9.77
2018-05-06T13:49:37.582Z,12.47
2018-05-06T13:52:05.405Z,34.13
2018-05-06T13:54:33.305Z,62.87
2018-05-06T13:57:01.242Z,50.03
2018-05-06T13:59:29.147Z,87.20
2018-05-06T14:01:57.285Z,228.43
2018-05-06T14:04:25.201Z,158.73
2018-05-06T14:06:53.188Z,395.00
2018-05-06T14:09:21.117Z,154.27
2018-05-06T14:11:49.026Z,426.63
2018-05-06T14:14:16.945Z,277.00
2018-05-06T14:16:44.833Z,250.10
2018-05-06T14:19:12.719Z,333.37
2018-05-06T14:21:40.652Z,152.73
2018-05-06T14:24:08.526Z,206.50
2018-05-06T14:26:36.437Z,157.97
2018-05-06T14:29:04.522Z,184.67
2018-05-06T14:31:32.410Z,149.17
2018-05-06T14:34:00.302Z,127.57
2018-05-06T14:36:28.241Z,60.27
2018-05-06T14:38:56.205Z,96.10
2018-05-06T14:41:24.185Z,26.63
2018-05-06T14:43:52.131Z,9.70
2018-05-06T14:46:26.223Z,15.97
2018-05-06T14:48:54.117Z,8.30
2018-05-06T14:51:22.027Z,2.60
2018-05-06T14:53:49.937Z,9.20
2018-05-06T14:56:17.861Z,4.75
2018-05-06T14:58:45.794Z,5.23
2018-05-06T15:01:13.705Z,3.77
2018-05-06T15:03:41.674Z,8.67
2018-05-06T15:06:09.479Z,1.97
2018-05-06T15:08:37.386Z,5.77
2018-05-06T15:11:05.282Z,2.23
2018-05-06T15:13:33.184Z,1.13
2018-05-06T15:16:01.086Z,1.20
2018-05-06T15:18:29.022Z,1.37
2018-05-06T15:20:56.964Z,6.67
2018-05-06T15:23:24.862Z,3.47
2018-05-06T15:25:52.761Z,1.40
2018-05-06T15:28:20.654Z,2.53
2018-05-06T15:30:48.772Z,5.03
2018-05-06T15:33:16.736Z,4.53
2018-05-06T15:35:44.630Z,2.10
2018-05-06T15:38:12.549Z,2.97
2018-05-06T15:40:40.454Z,3.40
2018-05-06T15:43:08.354Z,1.37
2018-05-06T15:45:36.245Z,1.43
2018-05-06T15:48:04.138Z,2.40
2018-05-06T15:50:32.099Z,7.07
2018-05-06T15:52:59.954Z,5.13
2018-05-06T15:55:27.858Z,1.30
2018-05-06T15:57:55.785Z,1.30
2018-05-06T16:00:23.674Z,1.40
2018-05-06T16:02:57.753Z,1.00
2018-05-06T16:05:25.716Z,0.90
2018-05-06T16:07:53.632Z,1.10
2018-05-06T16:10:21.529Z,2.30
2018-05-06T16:12:49.426Z,1.53
2018-05-06T16:15:17.377Z,3.93
2018-05-06T16:17:45.315Z,2.90
2018-05-06T16:20:13.231Z,1.47
2018-05-06T16:22:41.196Z,1.30
2018-05-06T16:25:09.030Z,1.30
2018-05-06T16:27:36.958Z,3.67
2018-05-06T16:30:04.850Z,6.33
2018-05-06T16:32:32.765Z,2.03
2018-05-06T16:35:00.668Z,1.23
2018-05-06T16:37:28.572Z,1.57
2018-05-06T16:39:56.752Z,1.27
2018-05-06T16:42:24.669Z,1.87
2018-05-06T16:44:52.570Z,1.80
2018-05-06T16:47:20.458Z,2.60
2018-05-06T16:49:48.345Z,1.77
2018-05-06T16:52:16.253Z,2.30
2018-05-06T16:54:44.169Z,1.50
2018-05-06T16:57:12.085Z,1.80
2018-05-06T16:59:39.982Z,1.60
2018-05-06T17:02:07.899Z,3.43
2018-05-06T17:04:35.793Z,2.70
2018-05-06T17:07:03.962Z,3.10
2018-05-06T17:09:31.860Z,2.00
2018-05-06T17:11:59.749Z,1.30
2018-05-06T17:14:27.634Z,2.20
2018-05-06T17:16:55.530Z,3.80
2018-05-06T17:19:23.430Z,9.70
2018-05-06T17:21:51.325Z,2.47
2018-05-06T17:24:19.235Z,2.23
2018-05-06T17:26:47.138Z,4.77
2018-05-06T17:29:15.062Z,9.13
2018-05-06T17:31:42.980Z,16.73
2018-05-06T17:34:10.903Z,10.83
2018-05-06T17:36:38.799Z,3.90
2018-05-06T17:39:06.699Z,5.30
2018-05-06T17:41:34.610Z,6.80
2018-05-06T17:44:02.491Z,3.50
2018-05-06T17:46:30.426Z,5.23
2018-05-06T17:48:58.326Z,9.00
2018-05-06T17:51:26.221Z,3.80
2018-05-06T17:53:54.121Z,3.93
2018-05-06T17:56:22.010Z,2.93
2018-05-06T17:58:49.941Z,4.77
2018-05-06T18:01:17.841Z,5.57
2018-05-06T18:03:45.754Z,5.87
2018-05-06T18:06:13.642Z,3.83
2018-05-06T18:08:41.543Z,7.03
2018-05-06T18:11:09.437Z,3.73
2018-05-06T18:13:37.370Z,5.97
2018-05-06T18:16:05.293Z,4.27
2018-05-06T18:18:33.209Z,5.00
2018-05-06T18:21:01.111Z,6.63
2018-05-06T18:23:29.017Z,5.37
2018-05-06T18:25:56.902Z,8.80
2018-05-06T18:28:24.796Z,5.10
2018-05-06T18:30:52.690Z,2.27
2018-05-06T18:33:20.631Z,5.33
2018-05-06T18:35:48.590Z,6.70
2018-05-06T18:38:16.470Z,9.27
2018-05-06T18:40:44.407Z,7.03
2018-05-06T18:43:12.310Z,11.00
2018-05-06T18:45:40.214Z,8.30
2018-05-06T18:48:08.113Z,6.13
2018-05-06T18:50:36.073Z,7.03
2018-05-06T18:53:03.973Z,7.07
2018-05-06T18:55:31.866Z,5.77
2018-05-06T18:57:59.773Z,8.07
2018-05-06T19:00:27.679Z,9.97
2018-05-06T19:02:55.669Z,6.40
2018-05-06T19:05:23.566Z,6.20
2018-05-06T19:07:51.468Z,7.80
2018-05-06T19:10:19.366Z,16.73
2018-05-06T19:12:47.257Z,7.83
2018-05-06T19:15:15.222Z,11.90
2018-05-06T19:17:43.139Z,4.47
2018-05-06T19:20:11.181Z,8.30
2018-05-06T19:22:39.085Z,9.90
2018-05-06T19:25:06.989Z,7.07
2018-05-06T19:27:34.931Z,8.23
2018-05-06T19:30:02.812Z,7.03
2018-05-06T19:32:31.075Z,7.27
2018-05-06T19:34:58.963Z,8.10
2018-05-06T19:37:27.041Z,2.57
2018-05-06T19:39:54.934Z,6.27
2018-05-06T19:42:22.895Z,3.40
2018-05-06T19:44:50.756Z,5.77
2018-05-06T19:47:18.646Z,7.60
2018-05-06T19:49:46.558Z,4.50
2018-05-06T19:52:14.466Z,9.57
2018-05-06T19:54:42.378Z,9.83
2018-05-06T19:57:10.282Z,11.83
2018-05-06T19:59:38.209Z,11.20
2018-05-06T20:02:06.109Z,5.57
2018-05-06T20:04:34.026Z,8.03
2018-05-06T20:07:01.922Z,9.97
2018-05-06T20:09:29.826Z,10.27
2018-05-06T20:11:57.795Z,13.53
2018-05-06T20:14:25.720Z,10.10
2018-05-06T20:16:53.615Z,14.13
2018-05-06T20:19:21.530Z,6.60
2018-05-06T20:21:49.522Z,4.97
2018-05-06T20:24:17.346Z,6.70
2018-05-06T20:26:45.267Z,5.87
2018-05-06T20:29:13.201Z,5.80
2018-05-06T20:31:41.090Z,9.00
2018-05-06T20:34:09.011Z,3.30
2018-05-06T20:36:36.898Z,6.30
2018-05-06T20:39:04.820Z,4.03
2018-05-06T20:41:32.709Z,8.03
2018-05-06T20:44:00.630Z,8.70
2018-05-06T20:46:28.541Z,3.93
2018-05-06T20:48:56.461Z,10.07
2018-05-06T20:51:24.357Z,9.33
2018-05-06T20:53:52.266Z,9.60
2018-05-06T20:56:20.165Z,5.43
2018-05-06T20:58:48.078Z,9.10
2018-05-06T21:01:15.982Z,8.50
2018-05-06T21:03:43.882Z,10.47
2018-05-06T21:06:11.781Z,16.07
2018-05-06T21:08:39.677Z,8.37
2018-05-06T21:11:07.577Z,9.83
2018-05-06T21:13:35.575Z,9.27
2018-05-06T21:16:03.378Z,6.10
2018-05-06T21:18:31.296Z,9.70
2018-05-06T21:20:59.202Z,10.53
2018-05-06T21:23:27.093Z,8.77
2018-05-06T21:25:54.991Z,8.13
2018-05-06T21:28:22.893Z,8.50
2018-05-06T21:30:50.801Z,9.47
2018-05-06T21:33:18.765Z,6.93
2018-05-06T21:35:46.594Z,10.03
2018-05-06T21:38:14.485Z,10.73
2018-05-06T21:40:42.398Z,10.07
2018-05-06T21:43:10.330Z,9.40
2018-05-06T21:45:38.217Z,5.70
2018-05-06T21:48:06.118Z,8.13
2018-05-06T21:50:34.029Z,11.33
2018-05-06T21:53:01.955Z,14.43
2018-05-06T21:55:29.855Z,10.97
2018-05-06T21:57:57.754Z,12.10
2018-05-06T22:00:25.681Z,7.50
2018-05-06T22:02:53.569Z,11.90
2018-05-06T22:05:21.510Z,11.47
2018-05-06T22:07:49.405Z,7.90
2018-05-06T22:10:17.505Z,8.70
2018-05-06T22:12:45.393Z,7.40
2018-05-06T22:15:13.277Z,5.80
2018-05-06T22:17:41.170Z,5.17
2018-05-06T22:20:09.049Z,8.33
2018-05-06T22:22:37.026Z,7.17
2018-05-06T22:25:04.843Z,7.70
2018-05-06T22:27:32.734Z,8.77
2018-05-06T22:30:00.627Z,8.13
2018-05-06T22:32:28.525Z,10.73
2018-05-06T22:34:56.429Z,10.30
2018-05-06T22:37:24.345Z,7.10
2018-05-06T22:39:52.257Z,14.30
2018-05-06T22:42:20.153Z,9.67
2018-05-06T22:44:48.050Z,7.67
2018-05-06T22:47:15.957Z,9.87
2018-05-06T22:49:43.873Z,8.73
2018-05-06T22:52:11.761Z,6.80
2018-05-06T22:54:39.637Z,9.73
2018-05-06T22:57:07.539Z,5.77
2018-05-06T22:59:35.530Z,17.63
2018-05-06T23:02:03.337Z,7.17
2018-05-06T23:04:31.233Z,14.17
2018-05-06T23:06:59.123Z,6.60
2018-05-06T23:09:27.012Z,9.87
2018-05-06T23:11:54.980Z,9.20
2018-05-06T23:14:22.861Z,7.50
2018-05-06T23:16:50.758Z,14.23
2018-05-06T23:19:18.721Z,5.00
2018-05-06T23:21:46.627Z,13.13
2018-05-06T23:24:14.462Z,13.40
2018-05-06T23:26:42.361Z,13.13
2018-05-06T23:29:10.336Z,8.27
2018-05-06T23:31:38.168Z,9.33
2018-05-06T23:34:06.063Z,7.50
2018-05-06T23:36:33.957Z,10.90
2018-05-06T23:39:01.859Z,8.40
2018-05-06T23:41:29.745Z,10.93
2018-05-06T23:43:57.883Z,15.50
2018-05-06T23:46:25.785Z,10.93
2018-05-06T23:48:53.677Z,9.90
2018-05-06T23:51:21.585Z,11.53
2018-05-06T23:53:49.473Z,12.40
2018-05-06T23:56:17.366Z,9.40
2018-05-06T23:58:45.351Z,10.83
